Wind From: 11-12-2017 07:30 Until: 12-12-2017 06:00 warning for: Wind Level: Orange info button

Power and phone distribution networks may be disrupted for relatively long periods., Roofs and chimneys can be damaged. , Tree branches may break. , Vehicles can be deported. , Traffic may be disrupted, particularly on secondary roads in forest areas. Limit your trips. , Limit your speed in highway driving, especially if you drive a vehicle or hitch sensitive to wind. , Do not go for walks in forests or along the coast., In town, be vigilant against possible falling objects., Do not work on roofs and do not touch any electrical line fallen on the ground., Store or secure sensitive objects to wind or likely to be damaged., Always install power generators outside buildings. 


Meteo18 Weather Cam more information Meteo18 Weather Cam


Thunder radar more information blitzortung!


Rain radar more information rain snow radar


Visit our other weather sites:

Template documentation
and downloads

And another site



Weather Underground History page Text

Daily Summary for September 24, 2017 Units:  Both    English   Metric
« Previous Day
Next Day »
Daily Weekly Monthly Yearly Custom
  High: Low: Average:
Temperature: 76.5 °F /  24.7 °C 51.1 °F /  10.6 °C 62.8 °F /  17.1 °C
Dew Point: 57.9 °F /  14.4 °C 49.1 °F /  9.5 °C 53.6 °F /  12 °C
Humidity: 94 % 47 % 74 %
Wind Speed: 6 mph /  9.7 km/h - 0.5 mph /  0.8 km/h
Wind Gust: 7 mph /  11.3 km/h - -
Wind:- - SSE
Pressure: 30.2 in /  1021.6 hPa 30.1 in /  1019.5 hPa -
Precipitation: 0 in /  0.0 mm    
Historical Graphs
 
 
Tabular Data for September 24, 2017
Time Temperature Dew Point Pressure Wind Wind Speed Wind Gust Humidity Rainfall Rate (Hourly)
00:02 57.7 °F /  14.3 °C 52.7 °F /  11.5 °C 30.2 in /  1021.2 hPa Calm   3 mph /  4.8 km/h 83 % 0 in /  0.0 mm
00:12 57.7 °F /  14.3 °C 52.9 °F /  11.6 °C 30.2 in /  1021.2 hPa NNW 2 mph /  3.2 km/h 3 mph /  4.8 km/h 84 % 0 in /  0.0 mm
00:17 57.7 °F /  14.3 °C 52.7 °F /  11.5 °C 30.2 in /  1021.2 hPa Calm   3 mph /  4.8 km/h 83 % 0 in /  0.0 mm
00:22 57.4 °F /  14.1 °C 52.5 °F /  11.4 °C 30.2 in /  1021.2 hPa Calm   4 mph /  6.4 km/h 84 % 0 in /  0.0 mm
00:32 57 °F /  13.9 °C 52.5 °F /  11.4 °C 30.2 in /  1021.2 hPa Calm   3 mph /  4.8 km/h 85 % 0 in /  0.0 mm
00:37 57 °F /  13.9 °C 52.5 °F /  11.4 °C 30.2 in /  1021.2 hPa Calm   3 mph /  4.8 km/h 85 % 0 in /  0.0 mm
00:42 57 °F /  13.9 °C 52.5 °F /  11.4 °C 30.2 in /  1021.2 hPa Calm   3 mph /  4.8 km/h 85 % 0 in /  0.0 mm
00:47 56.7 °F /  13.7 °C 52.2 °F /  11.2 °C 30.2 in /  1020.9 hPa Calm   2 mph /  3.2 km/h 85 % 0 in /  0.0 mm
00:52 56.3 °F /  13.5 °C 51.8 °F /  11.0 °C 30.2 in /  1020.9 hPa Calm   2 mph /  3.2 km/h 85 % 0 in /  0.0 mm
00:57 56.1 °F /  13.4 °C 52 °F /  11.1 °C 30.2 in /  1020.9 hPa Calm   1 mph /  1.6 km/h 86 % 0 in /  0.0 mm
01:02 55.9 °F /  13.3 °C 51.8 °F /  11.0 °C 30.2 in /  1020.9 hPa Calm   1 mph /  1.6 km/h 86 % 0 in /  0.0 mm
01:07 55.9 °F /  13.3 °C 51.8 °F /  11.0 °C 30.2 in /  1020.9 hPa Calm   1 mph /  1.6 km/h 86 % 0 in /  0.0 mm
01:12 55.8 °F /  13.2 °C 51.6 °F /  10.9 °C 30.2 in /  1020.9 hPa Calm   1 mph /  1.6 km/h 86 % 0 in /  0.0 mm
01:17 55.6 °F /  13.1 °C 51.8 °F /  11.0 °C 30.2 in /  1020.9 hPa Calm   1 mph /  1.6 km/h 87 % 0 in /  0.0 mm
01:22 55.6 °F /  13.1 °C 51.8 °F /  11.0 °C 30.2 in /  1020.9 hPa Calm   1 mph /  1.6 km/h 87 % 0 in /  0.0 mm
01:27 55.6 °F /  13.1 °C 51.8 °F /  11.0 °C 30.2 in /  1020.9 hPa Calm   1 mph /  1.6 km/h 87 % 0 in /  0.0 mm
01:32 55.6 °F /  13.1 °C 52.2 °F /  11.2 °C 30.2 in /  1020.9 hPa Calm   1 mph /  1.6 km/h 88 % 0 in /  0.0 mm
01:37 55.4 °F /  13.0 °C 52 °F /  11.1 °C 30.1 in /  1020.5 hPa NNW 1 mph /  1.6 km/h 1 mph /  1.6 km/h 88 % 0 in /  0.0 mm
01:42 55.4 °F /  13.0 °C 52 °F /  11.1 °C 30.1 in /  1020.5 hPa Calm   1 mph /  1.6 km/h 88 % 0 in /  0.0 mm
01:52 55.6 °F /  13.1 °C 52.2 °F /  11.2 °C 30.2 in /  1020.9 hPa Calm   1 mph /  1.6 km/h 88 % 0 in /  0.0 mm
01:57 55.6 °F /  13.1 °C 51.8 °F /  11.0 °C 30.2 in /  1020.9 hPa Calm   1 mph /  1.6 km/h 87 % 0 in /  0.0 mm
02:02 55.2 °F /  12.9 °C 51.8 °F /  11.0 °C 30.2 in /  1020.9 hPa Calm   1 mph /  1.6 km/h 88 % 0 in /  0.0 mm
02:07 55 °F /  12.8 °C 51.3 °F /  10.7 °C 30.2 in /  1020.9 hPa Calm   1 mph /  1.6 km/h 87 % 0 in /  0.0 mm
02:12 54.5 °F /  12.5 °C 51.3 °F /  10.7 °C 30.2 in /  1020.9 hPa Calm   1 mph /  1.6 km/h 89 % 0 in /  0.0 mm
02:17 54.7 °F /  12.6 °C 51.4 °F /  10.8 °C 30.2 in /  1020.9 hPa NNW 1 mph /  1.6 km/h 1 mph /  1.6 km/h 89 % 0 in /  0.0 mm
02:22 55 °F /  12.8 °C 51.8 °F /  11.0 °C 30.2 in /  1020.9 hPa Calm   1 mph /  1.6 km/h 89 % 0 in /  0.0 mm
02:32 55.4 °F /  13.0 °C 52 °F /  11.1 °C 30.2 in /  1020.9 hPa North 1 mph /  1.6 km/h 2 mph /  3.2 km/h 88 % 0 in /  0.0 mm
02:37 55.2 °F /  12.9 °C 51.4 °F /  10.8 °C 30.2 in /  1021.2 hPa Calm   2 mph /  3.2 km/h 87 % 0 in /  0.0 mm
02:42 55.2 °F /  12.9 °C 51.4 °F /  10.8 °C 30.2 in /  1021.2 hPa Calm   2 mph /  3.2 km/h 87 % 0 in /  0.0 mm
02:52 54.7 °F /  12.6 °C 50.9 °F /  10.5 °C 30.2 in /  1020.9 hPa Calm   2 mph /  3.2 km/h 87 % 0 in /  0.0 mm
02:57 54.7 °F /  12.6 °C 51.3 °F /  10.7 °C 30.2 in /  1021.2 hPa Calm   1 mph /  1.6 km/h 88 % 0 in /  0.0 mm
03:02 54.5 °F /  12.5 °C 51.3 °F /  10.7 °C 30.2 in /  1020.9 hPa Calm   1 mph /  1.6 km/h 89 % 0 in /  0.0 mm
03:07 54.5 °F /  12.5 °C 51.3 °F /  10.7 °C 30.2 in /  1020.9 hPa NNW 1 mph /  1.6 km/h 2 mph /  3.2 km/h 89 % 0 in /  0.0 mm
03:12 54.7 °F /  12.6 °C 51.4 °F /  10.8 °C 30.2 in /  1020.9 hPa Calm   2 mph /  3.2 km/h 89 % 0 in /  0.0 mm
03:17 54.9 °F /  12.7 °C 51.6 °F /  10.9 °C 30.2 in /  1020.9 hPa Calm   2 mph /  3.2 km/h 89 % 0 in /  0.0 mm
03:22 54.7 °F /  12.6 °C 51.3 °F /  10.7 °C 30.2 in /  1020.9 hPa NNW 1 mph /  1.6 km/h 2 mph /  3.2 km/h 88 % 0 in /  0.0 mm
03:27 54.7 °F /  12.6 °C 51.4 °F /  10.8 °C 30.2 in /  1020.9 hPa Calm   3 mph /  4.8 km/h 89 % 0 in /  0.0 mm
03:32 54.5 °F /  12.5 °C 51.3 °F /  10.7 °C 30.2 in /  1020.9 hPa Calm   3 mph /  4.8 km/h 89 % 0 in /  0.0 mm
03:37 54.3 °F /  12.4 °C 51.1 °F /  10.6 °C 30.2 in /  1020.9 hPa NNW 1 mph /  1.6 km/h 3 mph /  4.8 km/h 89 % 0 in /  0.0 mm
03:42 54.1 °F /  12.3 °C 50.9 °F /  10.5 °C 30.1 in /  1020.5 hPa North 1 mph /  1.6 km/h 3 mph /  4.8 km/h 89 % 0 in /  0.0 mm
03:47 54 °F /  12.2 °C 50.7 °F /  10.4 °C 30.1 in /  1020.5 hPa Calm   2 mph /  3.2 km/h 89 % 0 in /  0.0 mm
03:52 53.8 °F /  12.1 °C 50.9 °F /  10.5 °C 30.1 in /  1020.5 hPa North 1 mph /  1.6 km/h 2 mph /  3.2 km/h 90 % 0 in /  0.0 mm
03:57 53.8 °F /  12.1 °C 50.9 °F /  10.5 °C 30.1 in /  1020.5 hPa NNW 1 mph /  1.6 km/h 2 mph /  3.2 km/h 90 % 0 in /  0.0 mm
04:02 53.8 °F /  12.1 °C 50.9 °F /  10.5 °C 30.1 in /  1020.5 hPa North 1 mph /  1.6 km/h 2 mph /  3.2 km/h 90 % 0 in /  0.0 mm
04:12 53.4 °F /  11.9 °C 50.5 °F /  10.3 °C 30.1 in /  1020.5 hPa Calm   2 mph /  3.2 km/h 90 % 0 in /  0.0 mm
04:17 53.4 °F /  11.9 °C 50.5 °F /  10.3 °C 30.1 in /  1020.5 hPa Calm   2 mph /  3.2 km/h 90 % 0 in /  0.0 mm
04:22 53.4 °F /  11.9 °C 50.9 °F /  10.5 °C 30.1 in /  1020.5 hPa Calm   2 mph /  3.2 km/h 91 % 0 in /  0.0 mm
04:32 53.4 °F /  11.9 °C 50.9 °F /  10.5 °C 30.1 in /  1020.5 hPa NNW 1 mph /  1.6 km/h   91 % 0 in /  0.0 mm
04:37 53.2 °F /  11.8 °C 50.7 °F /  10.4 °C 30.1 in /  1020.5 hPa Calm   2 mph /  3.2 km/h 91 % 0 in /  0.0 mm
04:42 53.2 °F /  11.8 °C 50.4 °F /  10.2 °C 30.1 in /  1020.5 hPa Calm   2 mph /  3.2 km/h 90 % 0 in /  0.0 mm
04:52 53.1 °F /  11.7 °C 50.2 °F /  10.1 °C 30.1 in /  1020.5 hPa Calm   2 mph /  3.2 km/h 90 % 0 in /  0.0 mm
05:02 53.1 °F /  11.7 °C 50.5 °F /  10.3 °C 30.1 in /  1020.2 hPa North 1 mph /  1.6 km/h 2 mph /  3.2 km/h 91 % 0 in /  0.0 mm
05:07 53.1 °F /  11.7 °C 50.5 °F /  10.3 °C 30.1 in /  1020.2 hPa Calm   1 mph /  1.6 km/h 91 % 0 in /  0.0 mm
05:22 52.3 °F /  11.3 °C 49.8 °F /  9.9 °C 30.1 in /  1020.2 hPa North 1 mph /  1.6 km/h 1 mph /  1.6 km/h 91 % 0 in /  0.0 mm
05:32 52.3 °F /  11.3 °C 49.8 °F /  9.9 °C 30.1 in /  1020.2 hPa North 1 mph /  1.6 km/h 1 mph /  1.6 km/h 91 % 0 in /  0.0 mm
05:37 52.2 °F /  11.2 °C 49.8 °F /  9.9 °C 30.1 in /  1020.2 hPa Calm   1 mph /  1.6 km/h 92 % 0 in /  0.0 mm
05:42 52.2 °F /  11.2 °C 49.8 °F /  9.9 °C 30.1 in /  1020.2 hPa Calm   1 mph /  1.6 km/h 92 % 0 in /  0.0 mm
05:52 52 °F /  11.1 °C 49.6 °F /  9.8 °C 30.1 in /  1020.2 hPa Calm   1 mph /  1.6 km/h 92 % 0 in /  0.0 mm
05:57 51.8 °F /  11.0 °C 49.6 °F /  9.8 °C 30.1 in /  1020.2 hPa Calm     92 % 0 in /  0.0 mm
06:02 51.6 °F /  10.9 °C 49.5 °F /  9.7 °C 30.1 in /  1020.2 hPa Calm     92 % 0 in /  0.0 mm
06:12 51.6 °F /  10.9 °C 49.6 °F /  9.8 °C 30.1 in /  1020.5 hPa Calm     93 % 0 in /  0.0 mm
06:17 51.6 °F /  10.9 °C 49.6 °F /  9.8 °C 30.1 in /  1020.5 hPa Calm     93 % 0 in /  0.0 mm
06:22 52 °F /  11.1 °C 50 °F /  10.0 °C 30.1 in /  1020.5 hPa Calm     93 % 0 in /  0.0 mm
06:27 51.8 °F /  11.0 °C 49.8 °F /  9.9 °C 30.1 in /  1020.5 hPa Calm     93 % 0 in /  0.0 mm
06:32 51.8 °F /  11.0 °C 50.2 °F /  10.1 °C 30.1 in /  1020.5 hPa Calm     94 % 0 in /  0.0 mm
06:42 51.6 °F /  10.9 °C 49.6 °F /  9.8 °C 30.1 in /  1020.5 hPa Calm     93 % 0 in /  0.0 mm
06:47 51.6 °F /  10.9 °C 49.6 °F /  9.8 °C 30.1 in /  1020.5 hPa Calm     93 % 0 in /  0.0 mm
06:52 51.4 °F /  10.8 °C 49.5 °F /  9.7 °C 30.1 in /  1020.5 hPa Calm     93 % 0 in /  0.0 mm
06:57 51.3 °F /  10.7 °C 49.3 °F /  9.6 °C 30.1 in /  1020.5 hPa Calm     93 % 0 in /  0.0 mm
07:02 51.4 °F /  10.8 °C 49.8 °F /  9.9 °C 30.1 in /  1020.5 hPa Calm     94 % 0 in /  0.0 mm
07:12 51.3 °F /  10.7 °C 49.3 °F /  9.6 °C 30.1 in /  1020.5 hPa Calm     93 % 0 in /  0.0 mm
07:17 51.3 °F /  10.7 °C 49.3 °F /  9.6 °C 30.1 in /  1020.5 hPa Calm     93 % 0 in /  0.0 mm
07:22 51.3 °F /  10.7 °C 49.3 °F /  9.6 °C 30.1 in /  1020.5 hPa Calm     93 % 0 in /  0.0 mm
07:32 51.3 °F /  10.7 °C 49.3 °F /  9.6 °C 30.1 in /  1020.5 hPa Calm     93 % 0 in /  0.0 mm
07:42 51.1 °F /  10.6 °C 49.1 °F /  9.5 °C 30.1 in /  1020.5 hPa Calm     93 % 0 in /  0.0 mm
07:47 51.1 °F /  10.6 °C 49.5 °F /  9.7 °C 30.1 in /  1020.5 hPa Calm     94 % 0 in /  0.0 mm
07:57 51.1 °F /  10.6 °C 49.5 °F /  9.7 °C 30.1 in /  1020.5 hPa Calm     94 % 0 in /  0.0 mm
08:02 51.3 °F /  10.7 °C 49.6 °F /  9.8 °C 30.1 in /  1020.5 hPa Calm     94 % 0 in /  0.0 mm
08:07 51.4 °F /  10.8 °C 49.8 °F /  9.9 °C 30.2 in /  1020.9 hPa Calm     94 % 0 in /  0.0 mm
08:12 51.4 °F /  10.8 °C 49.8 °F /  9.9 °C 30.2 in /  1020.9 hPa Calm     94 % 0 in /  0.0 mm
08:17 51.4 °F /  10.8 °C 49.8 °F /  9.9 °C 30.1 in /  1020.5 hPa Calm     94 % 0 in /  0.0 mm
08:22 51.6 °F /  10.9 °C 50 °F /  10.0 °C 30.1 in /  1020.5 hPa Calm     94 % 0 in /  0.0 mm
08:32 51.6 °F /  10.9 °C 49.6 °F /  9.8 °C 30.2 in /  1020.9 hPa Calm     93 % 0 in /  0.0 mm
08:42 51.6 °F /  10.9 °C 50 °F /  10.0 °C 30.2 in /  1020.9 hPa Calm     94 % 0 in /  0.0 mm
08:52 51.4 °F /  10.8 °C 49.8 °F /  9.9 °C 30.2 in /  1020.9 hPa Calm     94 % 0 in /  0.0 mm
09:02 51.8 °F /  11.0 °C 50.2 °F /  10.1 °C 30.2 in /  1020.9 hPa Calm     94 % 0 in /  0.0 mm
09:07 52 °F /  11.1 °C 50.4 °F /  10.2 °C 30.2 in /  1020.9 hPa NNE 2 mph /  3.2 km/h   94 % 0 in /  0.0 mm
09:12 52.5 °F /  11.4 °C 50.9 °F /  10.5 °C 30.2 in /  1020.9 hPa NNE 1 mph /  1.6 km/h   94 % 0 in /  0.0 mm
09:17 53.2 °F /  11.8 °C 51.6 °F /  10.9 °C 30.2 in /  1020.9 hPa Calm   3 mph /  4.8 km/h 94 % 0 in /  0.0 mm
09:22 54.3 °F /  12.4 °C 52.7 °F /  11.5 °C 30.2 in /  1020.9 hPa North 1 mph /  1.6 km/h 3 mph /  4.8 km/h 94 % 0 in /  0.0 mm
09:32 55.8 °F /  13.2 °C 53.2 °F /  11.8 °C 30.2 in /  1021.2 hPa Calm   2 mph /  3.2 km/h 91 % 0 in /  0.0 mm
09:42 57 °F /  13.9 °C 53.4 °F /  11.9 °C 30.2 in /  1021.2 hPa NE 1 mph /  1.6 km/h 2 mph /  3.2 km/h 88 % 0 in /  0.0 mm
09:47 57 °F /  13.9 °C 53.2 °F /  11.8 °C 30.2 in /  1021.2 hPa Calm   2 mph /  3.2 km/h 87 % 0 in /  0.0 mm
09:52 57.6 °F /  14.2 °C 53.8 °F /  12.1 °C 30.2 in /  1021.2 hPa Calm   2 mph /  3.2 km/h 87 % 0 in /  0.0 mm
10:02 58.8 °F /  14.9 °C 53.6 °F /  12.0 °C 30.2 in /  1021.2 hPa Calm   2 mph /  3.2 km/h 83 % 0 in /  0.0 mm
10:07 59.4 °F /  15.2 °C 53.6 °F /  12.0 °C 30.2 in /  1021.6 hPa Calm   1 mph /  1.6 km/h 81 % 0 in /  0.0 mm
10:17 61 °F /  16.1 °C 54.5 °F /  12.5 °C 30.2 in /  1021.2 hPa Calm   2 mph /  3.2 km/h 79 % 0 in /  0.0 mm
10:22 61.5 °F /  16.4 °C 54.3 °F /  12.4 °C 30.2 in /  1021.2 hPa Calm   2 mph /  3.2 km/h 77 % 0 in /  0.0 mm
10:32 62.1 °F /  16.7 °C 54.3 °F /  12.4 °C 30.2 in /  1021.6 hPa Calm   2 mph /  3.2 km/h 76 % 0 in /  0.0 mm
10:37 62.4 °F /  16.9 °C 54.7 °F /  12.6 °C 30.2 in /  1021.6 hPa Calm   4 mph /  6.4 km/h 76 % 0 in /  0.0 mm
10:42 62.8 °F /  17.1 °C 55 °F /  12.8 °C 30.2 in /  1021.6 hPa Calm   4 mph /  6.4 km/h 76 % 0 in /  0.0 mm
10:47 63.3 °F /  17.4 °C 55.2 °F /  12.9 °C 30.2 in /  1021.2 hPa Calm   4 mph /  6.4 km/h 75 % 0 in /  0.0 mm
10:52 63.3 °F /  17.4 °C 54.9 °F /  12.7 °C 30.2 in /  1021.6 hPa Calm   4 mph /  6.4 km/h 74 % 0 in /  0.0 mm
11:02 63.9 °F /  17.7 °C 55.4 °F /  13.0 °C 30.2 in /  1021.2 hPa Calm   2 mph /  3.2 km/h 74 % 0 in /  0.0 mm
11:12 64.8 °F /  18.2 °C 55.6 °F /  13.1 °C 30.2 in /  1021.6 hPa Calm   2 mph /  3.2 km/h 72 % 0 in /  0.0 mm
11:17 64.9 °F /  18.3 °C 56.1 °F /  13.4 °C 30.2 in /  1021.6 hPa Calm   3 mph /  4.8 km/h 73 % 0 in /  0.0 mm
11:22 65.3 °F /  18.5 °C 56.5 °F /  13.6 °C 30.2 in /  1021.6 hPa SSE 1 mph /  1.6 km/h 3 mph /  4.8 km/h 73 % 0 in /  0.0 mm
11:32 65.8 °F /  18.8 °C 57 °F /  13.9 °C 30.2 in /  1021.6 hPa SE 1 mph /  1.6 km/h 3 mph /  4.8 km/h 73 % 0 in /  0.0 mm
11:42 66.4 °F /  19.1 °C 56.7 °F /  13.7 °C 30.2 in /  1021.2 hPa Calm   3 mph /  4.8 km/h 71 % 0 in /  0.0 mm
11:52 66.2 °F /  19.0 °C 56.8 °F /  13.8 °C 30.2 in /  1021.2 hPa Calm   3 mph /  4.8 km/h 72 % 0 in /  0.0 mm
12:02 67.3 °F /  19.6 °C 56.8 °F /  13.8 °C 30.2 in /  1020.9 hPa East 1 mph /  1.6 km/h 4 mph /  6.4 km/h 69 % 0 in /  0.0 mm
12:12 68.2 °F /  20.1 °C 57.6 °F /  14.2 °C 30.2 in /  1020.9 hPa Calm   4 mph /  6.4 km/h 69 % 0 in /  0.0 mm
12:17 68.4 °F /  20.2 °C 56.5 °F /  13.6 °C 30.2 in /  1020.9 hPa Calm   4 mph /  6.4 km/h 66 % 0 in /  0.0 mm
12:22 68.5 °F /  20.3 °C 56.7 °F /  13.7 °C 30.2 in /  1020.9 hPa ENE 3 mph /  4.8 km/h 4 mph /  6.4 km/h 66 % 0 in /  0.0 mm
12:27 68.4 °F /  20.2 °C 56.1 °F /  13.4 °C 30.2 in /  1020.9 hPa Calm   5 mph /  8.0 km/h 65 % 0 in /  0.0 mm
12:32 69.4 °F /  20.8 °C 57.9 °F /  14.4 °C 30.2 in /  1020.9 hPa East 1 mph /  1.6 km/h 5 mph /  8.0 km/h 67 % 0 in /  0.0 mm
12:42 69.1 °F /  20.6 °C 56.5 °F /  13.6 °C 30.2 in /  1020.9 hPa East 3 mph /  4.8 km/h 5 mph /  8.0 km/h 64 % 0 in /  0.0 mm
12:47 69.1 °F /  20.6 °C 56.8 °F /  13.8 °C 30.2 in /  1020.9 hPa Calm   4 mph /  6.4 km/h 65 % 0 in /  0.0 mm
12:52 69.6 °F /  20.9 °C 56.8 °F /  13.8 °C 30.2 in /  1020.9 hPa ENE 5 mph /  8.0 km/h 5 mph /  8.0 km/h 64 % 0 in /  0.0 mm
13:02 70 °F /  21.1 °C 56.8 °F /  13.8 °C 30.2 in /  1020.9 hPa SW 1 mph /  1.6 km/h 5 mph /  8.0 km/h 63 % 0 in /  0.0 mm
13:12 70.2 °F /  21.2 °C 56.5 °F /  13.6 °C 30.2 in /  1020.9 hPa ENE 4 mph /  6.4 km/h 5 mph /  8.0 km/h 62 % 0 in /  0.0 mm
13:17 70.3 °F /  21.3 °C 57.2 °F /  14.0 °C 30.2 in /  1020.9 hPa East 3 mph /  4.8 km/h 5 mph /  8.0 km/h 63 % 0 in /  0.0 mm
13:22 70.2 °F /  21.2 °C 57 °F /  13.9 °C 30.2 in /  1020.9 hPa NE 5 mph /  8.0 km/h 5 mph /  8.0 km/h 63 % 0 in /  0.0 mm
13:32 71.2 °F /  21.8 °C 56.7 °F /  13.7 °C 30.2 in /  1020.9 hPa Calm   5 mph /  8.0 km/h 60 % 0 in /  0.0 mm
13:37 71.6 °F /  22.0 °C 57 °F /  13.9 °C 30.2 in /  1020.9 hPa Calm   5 mph /  8.0 km/h 60 % 0 in /  0.0 mm
13:42 71.4 °F /  21.9 °C 57.2 °F /  14.0 °C 30.2 in /  1020.9 hPa Calm   5 mph /  8.0 km/h 61 % 0 in /  0.0 mm
13:52 72 °F /  22.2 °C 56.3 °F /  13.5 °C 30.1 in /  1020.5 hPa Calm   5 mph /  8.0 km/h 58 % 0 in /  0.0 mm
13:57 72.3 °F /  22.4 °C 56.7 °F /  13.7 °C 30.1 in /  1020.5 hPa SSW 3 mph /  4.8 km/h 5 mph /  8.0 km/h 58 % 0 in /  0.0 mm
14:02 72.9 °F /  22.7 °C 55.8 °F /  13.2 °C 30.1 in /  1020.5 hPa SE 2 mph /  3.2 km/h 5 mph /  8.0 km/h 55 % 0 in /  0.0 mm
14:12 73 °F /  22.8 °C 53.2 °F /  11.8 °C 30.1 in /  1020.5 hPa East 2 mph /  3.2 km/h 5 mph /  8.0 km/h 50 % 0 in /  0.0 mm
14:17 72.9 °F /  22.7 °C 53.6 °F /  12.0 °C 30.1 in /  1020.5 hPa Calm   5 mph /  8.0 km/h 51 % 0 in /  0.0 mm
14:22 73.8 °F /  23.2 °C 56.1 °F /  13.4 °C 30.1 in /  1020.5 hPa SE 1 mph /  1.6 km/h 4 mph /  6.4 km/h 54 % 0 in /  0.0 mm
14:32 74.5 °F /  23.6 °C 55.8 °F /  13.2 °C 30.1 in /  1020.5 hPa ENE 5 mph /  8.0 km/h 5 mph /  8.0 km/h 52 % 0 in /  0.0 mm
14:37 74.1 °F /  23.4 °C 55.4 °F /  13.0 °C 30.1 in /  1020.2 hPa Calm   4 mph /  6.4 km/h 52 % 0 in /  0.0 mm
14:42 74.7 °F /  23.7 °C 55.4 °F /  13.0 °C 30.1 in /  1020.2 hPa Calm   5 mph /  8.0 km/h 51 % 0 in /  0.0 mm
14:47 74.7 °F /  23.7 °C 55.4 °F /  13.0 °C 30.1 in /  1020.2 hPa Calm   5 mph /  8.0 km/h 51 % 0 in /  0.0 mm
14:57 74.3 °F /  23.5 °C 55 °F /  12.8 °C 30.1 in /  1020.2 hPa WNW 5 mph /  8.0 km/h 6 mph /  9.7 km/h 51 % 0 in /  0.0 mm
15:02 73.9 °F /  23.3 °C 55.8 °F /  13.2 °C 30.1 in /  1020.2 hPa Calm   6 mph /  9.7 km/h 53 % 0 in /  0.0 mm
15:12 73.9 °F /  23.3 °C 54.7 °F /  12.6 °C 30.1 in /  1020.2 hPa East 6 mph /  9.7 km/h 6 mph /  9.7 km/h 51 % 0 in /  0.0 mm
15:17 74.1 °F /  23.4 °C 55.9 °F /  13.3 °C 30.1 in /  1020.2 hPa Calm   6 mph /  9.7 km/h 53 % 0 in /  0.0 mm
15:22 74.7 °F /  23.7 °C 56.5 °F /  13.6 °C 30.1 in /  1020.2 hPa SE 2 mph /  3.2 km/h 6 mph /  9.7 km/h 53 % 0 in /  0.0 mm
15:27 74.8 °F /  23.8 °C 55 °F /  12.8 °C 30.1 in /  1020.2 hPa ENE 3 mph /  4.8 km/h 6 mph /  9.7 km/h 50 % 0 in /  0.0 mm
15:32 74.3 °F /  23.5 °C 54.5 °F /  12.5 °C 30.1 in /  1020.2 hPa Calm   6 mph /  9.7 km/h 50 % 0 in /  0.0 mm
15:42 75 °F /  23.9 °C 55.6 °F /  13.1 °C 30.1 in /  1019.9 hPa Calm   5 mph /  8.0 km/h 51 % 0 in /  0.0 mm
15:52 74.7 °F /  23.7 °C 54.9 °F /  12.7 °C 30.1 in /  1019.9 hPa SW 1 mph /  1.6 km/h 4 mph /  6.4 km/h 50 % 0 in /  0.0 mm
15:57 74.7 °F /  23.7 °C 54.9 °F /  12.7 °C 30.1 in /  1019.9 hPa WSW 2 mph /  3.2 km/h 7 mph /  11.3 km/h 50 % 0 in /  0.0 mm
16:02 75 °F /  23.9 °C 54.5 °F /  12.5 °C 30.1 in /  1019.9 hPa WNW 1 mph /  1.6 km/h 7 mph /  11.3 km/h 49 % 0 in /  0.0 mm
16:12 74.8 °F /  23.8 °C 54.3 °F /  12.4 °C 30.1 in /  1019.9 hPa Calm   3 mph /  4.8 km/h 49 % 0 in /  0.0 mm
16:17 74.8 °F /  23.8 °C 54.3 °F /  12.4 °C 30.1 in /  1019.9 hPa West 1 mph /  1.6 km/h 3 mph /  4.8 km/h 49 % 0 in /  0.0 mm
16:22 74.8 °F /  23.8 °C 55 °F /  12.8 °C 30.1 in /  1019.9 hPa Calm   3 mph /  4.8 km/h 50 % 0 in /  0.0 mm
16:32 75.4 °F /  24.1 °C 54.9 °F /  12.7 °C 30.1 in /  1019.5 hPa Calm   4 mph /  6.4 km/h 49 % 0 in /  0.0 mm
16:42 75.9 °F /  24.4 °C 55.4 °F /  13.0 °C 30.1 in /  1019.5 hPa East 1 mph /  1.6 km/h 2 mph /  3.2 km/h 49 % 0 in /  0.0 mm
16:52 76.1 °F /  24.5 °C 55.6 °F /  13.1 °C 30.1 in /  1019.9 hPa ENE 2 mph /  3.2 km/h 3 mph /  4.8 km/h 49 % 0 in /  0.0 mm
16:57 76.5 °F /  24.7 °C 55.4 °F /  13.0 °C 30.1 in /  1019.9 hPa SW 1 mph /  1.6 km/h 4 mph /  6.4 km/h 48 % 0 in /  0.0 mm
17:02 76.3 °F /  24.6 °C 54.5 °F /  12.5 °C 30.1 in /  1019.9 hPa SW 4 mph /  6.4 km/h 4 mph /  6.4 km/h 47 % 0 in /  0.0 mm
17:07 75.7 °F /  24.3 °C 54.7 °F /  12.6 °C 30.1 in /  1019.5 hPa Calm   5 mph /  8.0 km/h 48 % 0 in /  0.0 mm
17:12 76.3 °F /  24.6 °C 55.8 °F /  13.2 °C 30.1 in /  1019.5 hPa Calm   5 mph /  8.0 km/h 49 % 0 in /  0.0 mm
17:17 75.7 °F /  24.3 °C 55.2 °F /  12.9 °C 30.1 in /  1019.5 hPa ENE 4 mph /  6.4 km/h 5 mph /  8.0 km/h 49 % 0 in /  0.0 mm
17:22 75.2 °F /  24.0 °C 54.7 °F /  12.6 °C 30.1 in /  1019.5 hPa Calm   5 mph /  8.0 km/h 49 % 0 in /  0.0 mm
17:27 75.4 °F /  24.1 °C 55.4 °F /  13.0 °C 30.1 in /  1019.5 hPa NE 2 mph /  3.2 km/h 5 mph /  8.0 km/h 50 % 0 in /  0.0 mm
17:32 75.4 °F /  24.1 °C 55.4 °F /  13.0 °C 30.1 in /  1019.5 hPa Calm   5 mph /  8.0 km/h 50 % 0 in /  0.0 mm
17:37 75.4 °F /  24.1 °C 54.9 °F /  12.7 °C 30.1 in /  1019.5 hPa Calm   4 mph /  6.4 km/h 49 % 0 in /  0.0 mm
17:42 75.4 °F /  24.1 °C 54.9 °F /  12.7 °C 30.1 in /  1019.5 hPa Calm   4 mph /  6.4 km/h 49 % 0 in /  0.0 mm
17:47 75.4 °F /  24.1 °C 54.9 °F /  12.7 °C 30.1 in /  1019.5 hPa East 1 mph /  1.6 km/h 4 mph /  6.4 km/h 49 % 0 in /  0.0 mm
17:52 74.8 °F /  23.8 °C 55 °F /  12.8 °C 30.1 in /  1019.5 hPa Calm   4 mph /  6.4 km/h 50 % 0 in /  0.0 mm
18:02 74.8 °F /  23.8 °C 55 °F /  12.8 °C 30.1 in /  1019.5 hPa Calm   1 mph /  1.6 km/h 50 % 0 in /  0.0 mm
18:12 74.8 °F /  23.8 °C 55.6 °F /  13.1 °C 30.1 in /  1019.5 hPa Calm   1 mph /  1.6 km/h 51 % 0 in /  0.0 mm
18:17 74.5 °F /  23.6 °C 55.2 °F /  12.9 °C 30.1 in /  1019.5 hPa Calm     51 % 0 in /  0.0 mm
18:22 74.1 °F /  23.4 °C 54.3 °F /  12.4 °C 30.1 in /  1019.5 hPa East 1 mph /  1.6 km/h 1 mph /  1.6 km/h 50 % 0 in /  0.0 mm
18:27 73.8 °F /  23.2 °C 55 °F /  12.8 °C 30.1 in /  1019.9 hPa Calm   1 mph /  1.6 km/h 52 % 0 in /  0.0 mm
18:32 73.6 °F /  23.1 °C 55.4 °F /  13.0 °C 30.1 in /  1019.9 hPa Calm   3 mph /  4.8 km/h 53 % 0 in /  0.0 mm
18:37 73.2 °F /  22.9 °C 55 °F /  12.8 °C 30.1 in /  1019.9 hPa Calm   3 mph /  4.8 km/h 53 % 0 in /  0.0 mm
18:42 73 °F /  22.8 °C 55.4 °F /  13.0 °C 30.1 in /  1019.5 hPa East 1 mph /  1.6 km/h 6 mph /  9.7 km/h 54 % 0 in /  0.0 mm
18:52 72.5 °F /  22.5 °C 54.9 °F /  12.7 °C 30.1 in /  1019.5 hPa ENE 2 mph /  3.2 km/h 4 mph /  6.4 km/h 54 % 0 in /  0.0 mm
18:57 72.1 °F /  22.3 °C 54.5 °F /  12.5 °C 30.1 in /  1019.5 hPa East 1 mph /  1.6 km/h 4 mph /  6.4 km/h 54 % 0 in /  0.0 mm
19:02 72 °F /  22.2 °C 54.9 °F /  12.7 °C 30.1 in /  1019.5 hPa East 1 mph /  1.6 km/h 4 mph /  6.4 km/h 55 % 0 in /  0.0 mm
19:07 71.8 °F /  22.1 °C 54.7 °F /  12.6 °C 30.1 in /  1019.5 hPa ENE 1 mph /  1.6 km/h 3 mph /  4.8 km/h 55 % 0 in /  0.0 mm
19:12 71.8 °F /  22.1 °C 55.2 °F /  12.9 °C 30.1 in /  1019.5 hPa Calm   3 mph /  4.8 km/h 56 % 0 in /  0.0 mm
19:17 71.4 °F /  21.9 °C 55.4 °F /  13.0 °C 30.1 in /  1019.5 hPa Calm   2 mph /  3.2 km/h 57 % 0 in /  0.0 mm
19:22 71.1 °F /  21.7 °C 55 °F /  12.8 °C 30.1 in /  1019.5 hPa Calm   2 mph /  3.2 km/h 57 % 0 in /  0.0 mm
19:32 70.5 °F /  21.4 °C 56.5 °F /  13.6 °C 30.1 in /  1019.5 hPa ENE 1 mph /  1.6 km/h 2 mph /  3.2 km/h 61 % 0 in /  0.0 mm
19:37 70.2 °F /  21.2 °C 56.1 °F /  13.4 °C 30.1 in /  1019.5 hPa Calm   2 mph /  3.2 km/h 61 % 0 in /  0.0 mm
19:42 70 °F /  21.1 °C 55.9 °F /  13.3 °C 30.1 in /  1019.5 hPa NE 2 mph /  3.2 km/h 2 mph /  3.2 km/h 61 % 0 in /  0 mm
19:52 69.8 °F /  21.0 °C 55.8 °F /  13.2 °C 30.1 in /  1019.5 hPa NE 1 mph /  1.6 km/h 2 mph /  3.2 km/h 61 % 0 in /  0.0 mm
19:57 69.6 °F /  20.9 °C 55.6 °F /  13.1 °C 30.1 in /  1019.5 hPa NE 1 mph /  1.6 km/h 2 mph /  3.2 km/h 61 % 0 in /  0.0 mm
20:02 69.4 °F /  20.8 °C 55.9 °F /  13.3 °C 30.1 in /  1019.5 hPa Calm   2 mph /  3.2 km/h 62 % 0 in /  0.0 mm
20:12 68.5 °F /  20.3 °C 56.3 °F /  13.5 °C 30.1 in /  1019.5 hPa Calm   2 mph /  3.2 km/h 65 % 0 in /  0.0 mm
20:17 67.8 °F /  19.9 °C 56.1 °F /  13.4 °C 30.1 in /  1019.5 hPa Calm   1 mph /  1.6 km/h 66 % 0 in /  0.0 mm
20:22 67.5 °F /  19.7 °C 56.1 °F /  13.4 °C 30.1 in /  1019.5 hPa Calm   1 mph /  1.6 km/h 67 % 0 in /  0.0 mm
20:32 67.3 °F /  19.6 °C 56.3 °F /  13.5 °C 30.1 in /  1019.5 hPa Calm     68 % 0 in /  0.0 mm
20:37 67.1 °F /  19.5 °C 56.1 °F /  13.4 °C 30.1 in /  1019.5 hPa Calm     68 % 0 in /  0.0 mm
20:42 66.7 °F /  19.3 °C 55.8 °F /  13.2 °C 30.1 in /  1019.5 hPa Calm     68 % 0 in /  0.0 mm
20:52 66.7 °F /  19.3 °C 56.7 °F /  13.7 °C 30.1 in /  1019.9 hPa Calm     70 % 0 in /  0.0 mm
20:57 66.7 °F /  19.3 °C 56.7 °F /  13.7 °C 30.1 in /  1019.9 hPa NNW 1 mph /  1.6 km/h 1 mph /  1.6 km/h 70 % 0 in /  0.0 mm
21:02 66.6 °F /  19.2 °C 56.5 °F /  13.6 °C 30.1 in /  1019.9 hPa Calm   1 mph /  1.6 km/h 70 % 0 in /  0.0 mm
21:12 66.4 °F /  19.1 °C 56.7 °F /  13.7 °C 30.1 in /  1019.9 hPa Calm   1 mph /  1.6 km/h 71 % 0 in /  0.0 mm
21:17 66.2 °F /  19.0 °C 57.2 °F /  14.0 °C 30.1 in /  1019.9 hPa Calm   1 mph /  1.6 km/h 73 % 0 in /  0.0 mm
21:22 65.8 °F /  18.8 °C 57 °F /  13.9 °C 30.1 in /  1019.5 hPa Calm   1 mph /  1.6 km/h 73 % 0 in /  0.0 mm
21:32 65.5 °F /  18.6 °C 56.7 °F /  13.7 °C 30.1 in /  1019.5 hPa Calm     73 % 0 in /  0.0 mm
21:37 65.1 °F /  18.4 °C 56.3 °F /  13.5 °C 30.1 in /  1019.9 hPa Calm     73 % 0 in /  0.0 mm
21:42 64.9 °F /  18.3 °C 56.5 °F /  13.6 °C 30.1 in /  1019.5 hPa Calm     74 % 0 in /  0.0 mm
21:52 64.6 °F /  18.1 °C 56.5 °F /  13.6 °C 30.1 in /  1019.5 hPa Calm     75 % 0 in /  0.0 mm
21:57 64 °F /  17.8 °C 55.9 °F /  13.3 °C 30.1 in /  1019.5 hPa Calm   1 mph /  1.6 km/h 75 % 0 in /  0.0 mm
22:02 64 °F /  17.8 °C 55.9 °F /  13.3 °C 30.1 in /  1019.5 hPa Calm   1 mph /  1.6 km/h 75 % 0 in /  0.0 mm
22:07 64 °F /  17.8 °C 55.6 °F /  13.1 °C 30.1 in /  1019.5 hPa Calm   1 mph /  1.6 km/h 74 % 0 in /  0.0 mm
22:12 64 °F /  17.8 °C 55.6 °F /  13.1 °C 30.1 in /  1019.9 hPa Calm   1 mph /  1.6 km/h 74 % 0 in /  0.0 mm
22:17 63.7 °F /  17.6 °C 55.9 °F /  13.3 °C 30.1 in /  1019.9 hPa Calm   1 mph /  1.6 km/h 76 % 0 in /  0.0 mm
22:22 63.9 °F /  17.7 °C 55.8 °F /  13.2 °C 30.1 in /  1019.9 hPa Calm   1 mph /  1.6 km/h 75 % 0 in /  0.0 mm
22:27 64 °F /  17.8 °C 55.9 °F /  13.3 °C 30.1 in /  1019.9 hPa Calm   1 mph /  1.6 km/h 75 % 0 in /  0.0 mm
22:32 64 °F /  17.8 °C 55.9 °F /  13.3 °C 30.1 in /  1019.9 hPa Calm   1 mph /  1.6 km/h 75 % 0 in /  0.0 mm
22:37 63.9 °F /  17.7 °C 55.8 °F /  13.2 °C 30.1 in /  1019.9 hPa Calm     75 % 0 in /  0.0 mm
22:42 63.7 °F /  17.6 °C 55.6 °F /  13.1 °C 30.1 in /  1019.9 hPa Calm     75 % 0 in /  0.0 mm
22:47 63.7 °F /  17.6 °C 55.6 °F /  13.1 °C 30.1 in /  1019.5 hPa Calm     75 % 0 in /  0.0 mm
22:52 63.7 °F /  17.6 °C 55.6 °F /  13.1 °C 30.1 in /  1019.5 hPa Calm     75 % 0 in /  0.0 mm
23:02 63.5 °F /  17.5 °C 55.4 °F /  13.0 °C 30.1 in /  1019.5 hPa Calm     75 % 0 in /  0.0 mm
23:12 63 °F /  17.2 °C 55.6 °F /  13.1 °C 30.1 in /  1019.9 hPa WNW 1 mph /  1.6 km/h   77 % 0 in /  0.0 mm
23:17 62.2 °F /  16.8 °C 55.2 °F /  12.9 °C 30.1 in /  1019.5 hPa Calm   1 mph /  1.6 km/h 78 % 0 in /  0.0 mm
23:22 62.2 °F /  16.8 °C 54.9 °F /  12.7 °C 30.1 in /  1019.5 hPa Calm   1 mph /  1.6 km/h 77 % 0 in /  0.0 mm
23:32 63.1 °F /  17.3 °C 54.7 °F /  12.6 °C 30.1 in /  1019.5 hPa Calm   1 mph /  1.6 km/h 74 % 0 in /  0.0 mm
23:37 63.3 °F /  17.4 °C 54.9 °F /  12.7 °C 30.1 in /  1019.5 hPa Calm   1 mph /  1.6 km/h 74 % 0 in /  0.0 mm
23:47 61.7 °F /  16.5 °C 54.9 °F /  12.7 °C 30.1 in /  1019.5 hPa Calm   1 mph /  1.6 km/h 78 % 0 in /  0.0 mm
23:52 61.2 °F /  16.2 °C 54.7 °F /  12.6 °C 30.1 in /  1019.5 hPa Calm   1 mph /  1.6 km/h 79 % 0 in /  0.0 mm
23:57 61.2 °F /  16.2 °C 54.3 °F /  12.4 °C 30.1 in /  1019.5 hPa Calm   1 mph /  1.6 km/h 78 % 0 in /  0.0 mm
Meteo18
Compliments of Weather Underground - 4 mb

Script developed by  Jim McMurry - jmcmurry@mwt.net Adapted for the template by  Wim van der Kuil - Leuven-Template.eu

You find our weather info also at:

European Weather Network

Weather Underground

Equipment we use:

Weather-station
Davis Vue

Weather-program
Meteohub

Weather-server
Raspberry PI 2 B+

Provider
1 and 1

Davis Vue

Meteohub

Raspberry PI 2 B+

1 and 1